Time;durP1;ratioP1;P1;durP2;ratioP2;P2;SDS_P1;SDS_P2;PMS_P1;PMS_P2;Temp;Humidity;BMP_temperature;BMP_pressure;BME280_temperature;BME280_humidity;BME280_pressure;Samples;Min_cycle;Max_cycle;Signal;HPM_P1;HPM_P2
2023/03/13 05:24:22;;;;;;;5.35;1.42;;;13.20;72.00;;;;;;4766421;30;20118;-78
2023/03/13 05:26:48;;;;;;;10.15;2.58;;;13.10;71.90;;;;;;4771153;30;20056;-77
2023/03/13 05:29:14;;;;;;;9.88;2.05;;;13.20;72.10;;;;;;4771595;30;20121;-79
2023/03/13 05:31:45;;;;;;;14.88;2.60;;;13.20;72.50;;;;;;4772015;30;20098;-80
2023/03/13 05:34:14;;;;;;;17.27;2.63;;;13.40;72.80;;;;;;4771895;30;20128;-83
2023/03/13 05:36:39;;;;;;;8.05;1.70;;;13.50;73.00;;;;;;4771683;30;20048;-77
2023/03/13 05:39:05;;;;;;;8.23;2.25;;;13.70;72.90;;;;;;4772545;30;20310;-81
2023/03/13 05:41:37;;;;;;;22.75;2.55;;;13.80;72.80;;;;;;4771982;30;20079;-82
2023/03/13 05:44:02;;;;;;;10.60;1.95;;;13.90;72.70;;;;;;4771883;30;20036;-81
2023/03/13 05:46:28;;;;;;;19.52;3.40;;;14.00;72.60;;;;;;4771668;30;20062;-79
2023/03/13 05:48:56;;;;;;;13.38;2.83;;;14.10;72.70;;;;;;4771648;30;20047;-82
2023/03/13 05:51:22;;;;;;;20.15;3.05;;;14.20;72.80;;;;;;4756896;30;20151;-81
2023/03/13 05:53:48;;;;;;;15.25;2.72;;;14.30;72.60;;;;;;4771822;30;20135;-82
2023/03/13 05:56:13;;;;;;;18.20;2.92;;;14.40;72.70;;;;;;4747985;30;20079;-80
2023/03/13 05:58:39;;;;;;;13.52;3.13;;;14.40;72.70;;;;;;4774807;30;20179;-81
2023/03/13 06:01:10;;;;;;;15.27;2.30;;;14.50;73.00;;;;;;4774715;30;20189;-80
2023/03/13 06:03:38;;;;;;;10.32;2.63;;;14.60;72.90;;;;;;4775458;30;20403;-76
2023/03/13 06:06:04;;;;;;;12.65;2.53;;;14.60;72.80;;;;;;4775417;30;20062;-77
2023/03/13 06:08:31;;;;;;;12.13;2.85;;;14.70;72.80;;;;;;4775220;30;20127;-82
2023/03/13 06:11:02;;;;;;;18.75;2.90;;;14.80;72.50;;;;;;4774478;30;20618;-78
2023/03/13 06:13:28;;;;;;;17.75;2.70;;;14.90;72.90;;;;;;4786361;30;20064;-77
2023/03/13 06:15:55;;;;;;;16.60;3.15;;;15.00;72.90;;;;;;4791744;30;20116;-76
2023/03/13 06:18:22;;;;;;;13.60;2.70;;;15.10;72.90;;;;;;4791517;30;20093;-77
2023/03/13 06:20:54;;;;;;;17.33;2.53;;;15.20;72.70;;;;;;4776876;30;20109;-84
2023/03/13 06:23:19;;;;;;;15.38;2.33;;;15.20;72.40;;;;;;4782633;30;20435;-76
2023/03/13 06:25:48;;;;;;;14.70;2.30;;;15.30;72.40;;;;;;4774802;30;20067;-78
2023/03/13 06:28:14;;;;;;;16.60;2.22;;;15.30;73.00;;;;;;4763402;30;20048;-74
2023/03/13 06:30:40;;;;;;;12.70;2.72;;;15.30;72.20;;;;;;4754678;30;20080;-76
2023/03/13 06:33:06;;;;;;;18.92;3.22;;;15.40;72.40;;;;;;4757004;30;20091;-76
2023/03/13 06:35:32;;;;;;;19.38;3.58;;;15.50;72.40;;;;;;4749518;30;20048;-75
2023/03/13 06:37:57;;;;;;;15.85;3.13;;;15.50;72.40;;;;;;4757067;30;20056;-76
2023/03/13 06:40:23;;;;;;;22.23;3.75;;;15.50;72.20;;;;;;4756605;30;20059;-75
2023/03/13 06:42:49;;;;;;;13.60;3.22;;;15.60;73.20;;;;;;4756303;30;20496;-76
2023/03/13 06:45:14;;;;;;;20.17;3.40;;;15.60;72.50;;;;;;4740664;30;20067;-79
2023/03/13 06:47:40;;;;;;;25.23;3.15;;;15.70;72.10;;;;;;4754950;30;20048;-79
2023/03/13 06:50:06;;;;;;;15.45;3.35;;;15.70;71.90;;;;;;4756151;30;20059;-76
2023/03/13 06:52:32;;;;;;;15.93;2.75;;;15.80;71.70;;;;;;4756695;30;20415;-76
2023/03/13 06:54:58;;;;;;;21.13;3.80;;;15.80;71.50;;;;;;4756249;30;20127;-76
2023/03/13 06:57:23;;;;;;;17.92;2.85;;;15.50;69.60;;;;;;4752483;30;20060;-78
2023/03/13 06:59:49;;;;;;;13.48;2.92;;;15.50;71.20;;;;;;4765096;30;20052;-76
2023/03/13 07:02:15;;;;;;;15.13;3.03;;;15.60;71.40;;;;;;4755575;30;20048;-76
2023/03/13 07:04:42;;;;;;;22.00;3.08;;;15.70;71.90;;;;;;4737730;30;20476;-77
2023/03/13 07:07:08;;;;;;;18.48;3.05;;;15.70;71.00;;;;;;4738872;30;20064;-78
2023/03/13 07:09:36;;;;;;;10.57;2.78;;;15.80;70.80;;;;;;4722873;30;20548;-80
2023/03/13 07:12:03;;;;;;;15.02;2.67;;;15.90;70.60;;;;;;4738239;30;20053;-78
2023/03/13 07:14:29;;;;;;;14.98;3.05;;;15.90;70.30;;;;;;4738604;30;20161;-79
2023/03/13 07:16:58;;;;;;;12.23;2.70;;;15.90;70.10;;;;;;4738666;30;20071;-77
2023/03/13 07:19:24;;;;;;;15.00;2.85;;;15.90;69.90;;;;;;4745506;30;20067;-78
2023/03/13 07:21:51;;;;;;;12.45;2.90;;;15.90;69.70;;;;;;4756303;30;20056;-76
2023/03/13 07:24:17;;;;;;;10.20;2.92;;;15.90;69.50;;;;;;4765189;30;20137;-75
2023/03/13 07:26:43;;;;;;;12.57;2.65;;;15.80;69.40;;;;;;4773440;30;20052;-78
2023/03/13 07:29:09;;;;;;;12.45;2.80;;;15.90;69.30;;;;;;4773875;30;20063;-77
2023/03/13 07:31:34;;;;;;;13.35;2.72;;;15.80;69.10;;;;;;4773782;30;20430;-77
2023/03/13 07:34:00;;;;;;;8.15;2.05;;;15.80;69.00;;;;;;4773301;30;20077;-79
2023/03/13 07:36:26;;;;;;;14.38;3.00;;;15.80;68.90;;;;;;4774214;30;20063;-77
2023/03/13 07:38:52;;;;;;;8.35;2.25;;;15.80;68.80;;;;;;4773711;30;20048;-77
2023/03/13 07:41:19;;;;;;;9.20;2.55;;;15.70;68.60;;;;;;4773410;30;20056;-80
2023/03/13 07:43:45;;;;;;;8.85;2.30;;;15.70;68.60;;;;;;4757496;30;20459;-81
2023/03/13 07:46:13;;;;;;;8.02;2.10;;;15.70;68.50;;;;;;4743185;30;20063;-81
2023/03/13 07:48:41;;;;;;;9.18;2.35;;;15.60;68.40;;;;;;4741142;30;20079;-80
2023/03/13 07:51:11;;;;;;;10.15;2.30;;;15.60;68.30;;;;;;4757430;30;20433;-79
2023/03/13 07:53:37;;;;;;;7.28;2.63;;;15.60;68.20;;;;;;4741970;30;20085;-79
2023/03/13 07:56:05;;;;;;;10.82;2.10;;;15.60;68.20;;;;;;4754153;30;20043;-80
2023/03/13 07:58:33;;;;;;;5.95;1.92;;;15.50;68.10;;;;;;4754794;30;20044;-81
2023/03/13 08:00:59;;;;;;;8.25;2.15;;;15.50;68.00;;;;;;4756809;30;20039;-82
2023/03/13 08:03:26;;;;;;;6.40;1.80;;;15.50;68.00;;;;;;4742475;30;20056;-82
2023/03/13 08:06:07;;;;;;;6.57;2.38;;;15.40;68.00;;;;;;4756871;30;20039;-81
2023/03/13 08:08:34;;;;;;;8.73;2.65;;;15.40;67.90;;;;;;4772780;30;20177;-81
2023/03/13 08:11:09;;;;;;;10.45;2.65;;;15.40;67.90;;;;;;4742020;30;20071;-78
2023/03/13 08:13:35;;;;;;;6.15;2.20;;;15.40;68.00;;;;;;4772246;30;20040;-77
2023/03/13 08:16:25;;;;;;;14.25;2.80;;;15.30;68.10;;;;;;4772482;30;20360;-79
2023/03/13 08:18:53;;;;;;;8.65;2.17;;;15.30;68.10;;;;;;4773002;30;20048;-76
2023/03/13 08:21:22;;;;;;;7.68;2.33;;;15.30;68.30;;;;;;4773087;30;20130;-75
2023/03/13 08:23:51;;;;;;;8.77;2.17;;;15.30;68.30;;;;;;4771933;30;20586;-75
2023/03/13 08:26:19;;;;;;;10.90;3.10;;;15.30;68.40;;;;;;4771943;30;20162;-78
2023/03/13 08:28:47;;;;;;;12.98;2.83;;;15.30;68.40;;;;;;4757082;30;20066;-78
2023/03/13 08:31:18;;;;;;;12.57;2.63;;;15.30;68.40;;;;;;4790843;30;20077;-80
2023/03/13 08:33:45;;;;;;;10.05;2.58;;;15.20;68.50;;;;;;4776108;30;20432;-76
2023/03/13 08:36:22;;;;;;;8.23;2.42;;;15.20;68.60;;;;;;4767849;30;20044;-78
2023/03/13 08:38:48;;;;;;;10.60;2.28;;;15.20;68.80;;;;;;4772463;30;20055;-76
2023/03/13 08:41:16;;;;;;;10.75;2.85;;;15.20;69.10;;;;;;4756796;30;20048;-78
2023/03/13 08:43:42;;;;;;;10.77;2.15;;;15.20;69.20;;;;;;4772081;30;20130;-77
2023/03/13 08:46:08;;;;;;;8.18;2.10;;;15.20;69.20;;;;;;4756479;30;20074;-77
2023/03/13 08:48:34;;;;;;;7.25;2.75;;;15.20;69.20;;;;;;4756090;30;20043;-78
2023/03/13 08:51:06;;;;;;;10.77;2.42;;;15.20;69.30;;;;;;4763211;30;20051;-76
2023/03/13 08:53:34;;;;;;;8.82;2.35;;;15.20;69.40;;;;;;4772073;30;20056;-79
2023/03/13 08:56:00;;;;;;;9.35;2.55;;;15.20;69.60;;;;;;4755166;30;20431;-78
2023/03/13 08:58:26;;;;;;;7.70;1.90;;;15.20;69.90;;;;;;4767875;30;20448;-79
2023/03/13 09:00:53;;;;;;;8.57;2.30;;;15.20;69.60;;;;;;4789051;30;20468;-78
2023/03/13 09:03:19;;;;;;;8.57;2.03;;;15.30;69.70;;;;;;4766982;30;20047;-79
2023/03/13 09:05:46;;;;;;;8.18;1.83;;;15.30;69.70;;;;;;4772232;30;20462;-82
2023/03/13 09:08:14;;;;;;;7.28;1.80;;;15.30;69.50;;;;;;4772453;30;20109;-80
2023/03/13 09:10:39;;;;;;;8.07;2.08;;;15.30;69.20;;;;;;4741742;30;20055;-81
2023/03/13 09:13:05;;;;;;;11.02;2.20;;;15.40;69.10;;;;;;4741416;30;20044;-81
2023/03/13 09:15:31;;;;;;;7.95;2.35;;;15.40;69.00;;;;;;4755721;30;20121;-80
2023/03/13 09:17:57;;;;;;;6.45;2.00;;;15.40;68.80;;;;;;4771896;30;20120;-80
2023/03/13 09:20:22;;;;;;;8.90;1.92;;;15.40;68.70;;;;;;4755438;30;20150;-80
2023/03/13 09:22:48;;;;;;;9.52;2.45;;;15.40;68.50;;;;;;4756104;30;20063;-77
2023/03/13 09:25:14;;;;;;;8.30;2.10;;;15.40;68.40;;;;;;4755720;30;20136;-78
2023/03/13 09:27:40;;;;;;;6.32;1.70;;;15.30;68.30;;;;;;4772271;30;20051;-80
2023/03/13 09:30:06;;;;;;;5.93;1.95;;;15.30;68.50;;;;;;4759965;30;20391;-75
2023/03/13 09:32:33;;;;;;;6.07;2.05;;;15.30;68.40;;;;;;4775539;30;20058;-83
2023/03/13 09:34:59;;;;;;;8.40;2.13;;;15.20;68.30;;;;;;4759955;30;20051;-83
2023/03/13 09:37:25;;;;;;;7.03;1.40;;;15.30;68.20;;;;;;4759341;30;20357;-79
2023/03/13 09:39:51;;;;;;;8.68;2.17;;;15.30;68.10;;;;;;4774852;30;20465;-78
2023/03/13 09:42:45;;;;;;;5.72;1.52;;;15.40;68.20;;;;;;4775219;30;20132;-80
2023/03/13 09:45:30;;;;;;;6.80;1.80;;;15.50;68.10;;;;;;4760135;30;20056;-79
2023/03/13 09:48:17;;;;;;;9.18;4.45;;;15.50;68.10;;;;;;4775739;30;20078;-81
2023/03/13 09:50:51;;;;;;;9.05;2.60;;;15.50;68.50;;;;;;4772364;30;20052;-79
2023/03/13 09:53:30;;;;;;;11.80;2.88;;;15.50;69.30;;;;;;4773937;30;20070;-76
2023/03/13 09:55:56;;;;;;;7.15;2.53;;;15.60;69.60;;;;;;4772076;30;20199;-75
2023/03/13 09:58:25;;;;;;;7.57;2.08;;;15.60;68.80;;;;;;4758573;30;20048;-75
2023/03/13 10:01:01;;;;;;;9.35;2.20;;;15.60;68.60;;;;;;4772672;30;20055;-76
2023/03/13 10:03:34;;;;;;;8.63;2.55;;;15.70;68.50;;;;;;4758779;30;20051;-74
2023/03/13 10:06:22;;;;;;;8.20;2.38;;;15.70;68.40;;;;;;4762261;30;20488;-75
2023/03/13 10:08:47;;;;;;;7.65;1.80;;;15.70;68.20;;;;;;4766147;30;20053;-75
2023/03/13 10:11:25;;;;;;;9.80;2.28;;;15.80;68.20;;;;;;4756506;30;20428;-74
2023/03/13 10:14:18;;;;;;;8.63;2.10;;;15.80;68.20;;;;;;4764847;30;20138;-74
2023/03/13 10:17:10;;;;;;;9.05;1.80;;;15.90;68.10;;;;;;4774444;30;20062;-76
2023/03/13 10:19:42;;;;;;;7.43;2.20;;;15.90;68.00;;;;;;4758561;30;20063;-75
2023/03/13 10:22:16;;;;;;;7.43;2.00;;;16.10;68.00;;;;;;4783924;30;20061;-78
2023/03/13 10:24:49;;;;;;;6.50;2.08;;;16.20;67.70;;;;;;4776346;30;20074;-76
2023/03/13 10:27:15;;;;;;;;;;;16.20;67.40;;;;;;4774492;30;20071;-78
2023/03/13 10:29:41;;;;;;;12.68;2.97;;;16.30;67.30;;;;;;4767031;30;20338;-76
2023/03/13 10:32:10;;;;;;;7.47;2.70;;;16.30;67.20;;;;;;4774867;30;20055;-76
2023/03/13 10:34:47;;;;;;;6.22;1.63;;;16.40;67.00;;;;;;4758085;30;20083;-81
2023/03/13 10:37:15;;;;;;;7.28;1.83;;;16.50;66.70;;;;;;4772344;30;20456;-74
2023/03/13 10:39:41;;;;;;;7.65;2.20;;;16.50;66.70;;;;;;4773755;30;20468;-77
2023/03/13 10:42:30;;;;;;;9.55;3.05;;;16.50;66.50;;;;;;4774574;30;20122;-77
2023/03/13 10:44:58;;;;;;;7.35;2.63;;;16.50;66.30;;;;;;4767824;30;20048;-76
2023/03/13 10:47:24;;;;;;;6.90;1.92;;;16.50;66.40;;;;;;4770599;30;20056;-75
2023/03/13 10:49:54;;;;;;;10.20;2.70;;;16.50;66.30;;;;;;4758476;30;20067;-76
2023/03/13 10:52:41;;;;;;;9.32;2.20;;;16.50;66.20;;;;;;4773644;30;20047;-75
2023/03/13 10:55:12;;;;;;;12.75;2.67;;;16.50;66.10;;;;;;4775136;30;20089;-75
2023/03/13 10:57:40;;;;;;;9.52;2.60;;;16.50;66.20;;;;;;4755670;30;20110;-74
2023/03/13 11:00:42;;;;;;;10.15;3.03;;;16.50;66.20;;;;;;4756420;30;20121;-75
2023/03/13 11:03:22;;;;;;;10.60;2.75;;;16.50;65.90;;;;;;4735567;30;20088;-75
2023/03/13 11:06:00;;;;;;;6.88;2.22;;;16.50;65.90;;;;;;4754249;30;20133;-76
2023/03/13 11:08:27;;;;;;;9.88;2.63;;;16.50;65.80;;;;;;4756557;30;20060;-77
2023/03/13 11:11:01;;;;;;;10.70;2.50;;;16.50;65.90;;;;;;4756936;30;20054;-77
2023/03/13 11:13:41;;;;;;;8.63;2.60;;;16.40;65.90;;;;;;4773379;30;20411;-77
2023/03/13 11:16:19;;;;;;;7.82;2.30;;;16.40;65.80;;;;;;4772797;30;20071;-77
2023/03/13 11:19:29;;;;;;;9.07;2.63;;;16.40;65.80;;;;;;4772208;30;20066;-81
2023/03/13 11:22:13;;;;;;;7.82;1.98;;;16.40;65.70;;;;;;4709028;30;20053;-77
2023/03/13 11:24:52;;;;;;;9.13;2.58;;;16.40;65.80;;;;;;4691359;30;20061;-79
2023/03/13 11:27:27;;;;;;;12.82;3.40;;;16.50;65.80;;;;;;4717785;30;20447;-78
2023/03/13 11:30:02;;;;;;;9.73;2.72;;;16.50;65.70;;;;;;4744565;30;20052;-79
2023/03/13 11:32:50;;;;;;;10.77;2.58;;;16.50;65.60;;;;;;4757241;30;20055;-80
2023/03/13 11:35:40;;;;;;;10.98;2.38;;;16.50;65.50;;;;;;4772863;30;20063;-79
2023/03/13 11:38:18;;;;;;;9.25;2.10;;;16.50;65.60;;;;;;4756940;30;20116;-79
2023/03/13 11:40:53;;;;;;;13.43;2.85;;;16.50;65.40;;;;;;4773288;30;20043;-78
2023/03/13 11:43:37;;;;;;;12.75;2.35;;;16.60;65.30;;;;;;4773095;30;20044;-81
2023/03/13 11:46:24;;;;;;;14.35;3.47;;;16.60;65.50;;;;;;4773408;30;20105;-78
2023/03/13 11:49:17;;;;;;;10.93;3.15;;;16.60;65.30;;;;;;4757808;30;20201;-77
2023/03/13 11:51:56;;;;;;;9.38;2.60;;;16.60;65.10;;;;;;4772680;30;20056;-79
2023/03/13 11:55:00;;;;;;;10.82;3.55;;;16.50;65.00;;;;;;4773235;30;20448;-78
2023/03/13 11:57:39;;;;;;;11.40;3.03;;;16.50;64.90;;;;;;4751642;30;20132;-79
2023/03/13 12:00:47;;;;;;;12.13;2.85;;;16.50;65.00;;;;;;4772196;30;20136;-78
2023/03/13 12:03:29;;;;;;;15.88;3.20;;;16.50;65.00;;;;;;4768294;30;20064;-77
2023/03/13 12:05:58;;;;;;;10.20;2.72;;;16.40;64.80;;;;;;4772890;30;20118;-79
2023/03/13 12:08:42;;;;;;;12.93;3.85;;;16.40;65.00;;;;;;4757233;30;20070;-78
2023/03/13 12:11:27;;;;;;;15.10;3.67;;;16.40;65.60;;;;;;4757598;30;20087;-78
2023/03/13 12:14:07;;;;;;;10.40;2.55;;;16.40;65.30;;;;;;4773047;30;20056;-79
2023/03/13 12:16:48;;;;;;;11.68;3.40;;;16.30;65.00;;;;;;4757254;30;20539;-76
2023/03/13 12:19:24;;;;;;;13.93;3.35;;;16.30;65.10;;;;;;4772266;30;20062;-77
2023/03/13 12:21:53;;;;;;;15.07;3.75;;;16.30;65.10;;;;;;4772499;30;20101;-78
2023/03/13 12:24:26;;;;;;;9.30;3.17;;;16.20;65.10;;;;;;4770986;30;20500;-79
2023/03/13 12:26:58;;;;;;;11.85;3.20;;;16.20;65.10;;;;;;4757215;30;20099;-78
2023/03/13 12:29:35;;;;;;;12.20;3.47;;;16.20;65.10;;;;;;4773001;30;20375;-79
2023/03/13 12:32:10;;;;;;;13.68;2.97;;;16.20;65.10;;;;;;4772500;30;20132;-77
2023/03/13 12:35:11;;;;;;;11.02;3.30;;;16.20;65.20;;;;;;4755182;30;20067;-78
2023/03/13 12:37:49;;;;;;;13.13;3.33;;;16.20;65.10;;;;;;4736515;30;20060;-78
2023/03/13 12:40:22;;;;;;;13.75;3.10;;;16.20;64.90;;;;;;4769195;30;20071;-78
2023/03/13 12:43:01;;;;;;;12.68;3.97;;;16.10;64.80;;;;;;4772571;30;20067;-79
2023/03/13 12:45:28;;;;;;;12.95;3.67;;;16.10;64.70;;;;;;4772638;30;20449;-77
2023/03/13 12:48:39;;;;;;;13.00;2.78;;;16.10;64.60;;;;;;4772177;30;20051;-77
2023/03/13 12:51:11;;;;;;;12.35;3.40;;;16.10;64.50;;;;;;4717572;30;20068;-77
2023/03/13 12:53:42;;;;;;;15.77;3.13;;;16.10;64.50;;;;;;4749714;30;20075;-79
2023/03/13 12:56:38;;;;;;;11.68;3.05;;;16.00;64.40;;;;;;4772317;30;20052;-78
2023/03/13 12:59:33;;;;;;;10.65;3.45;;;16.00;64.30;;;;;;4772363;30;20070;-79
2023/03/13 13:02:02;;;;;;;10.73;3.33;;;16.00;64.90;;;;;;4756079;30;20055;-78
2023/03/13 13:04:33;;;;;;;11.88;3.42;;;16.00;64.30;;;;;;4772132;30;20055;-78
2023/03/13 13:07:19;;;;;;;13.25;3.75;;;16.00;64.20;;;;;;4772129;30;20130;-79
2023/03/13 13:10:07;;;;;;;11.68;3.30;;;16.00;64.20;;;;;;4771366;30;20064;-79
2023/03/13 13:12:34;;;;;;;12.95;3.72;;;16.00;64.20;;;;;;4772446;30;20047;-77
2023/03/13 13:15:13;;;;;;;14.38;4.05;;;16.00;64.10;;;;;;4772756;30;20055;-77
2023/03/13 13:17:44;;;;;;;15.38;3.90;;;16.00;64.10;;;;;;4771937;30;20367;-78
2023/03/13 13:20:31;;;;;;;11.52;3.50;;;16.00;64.00;;;;;;4771407;30;20477;-79
2023/03/13 13:23:21;;;;;;;16.10;3.78;;;15.90;63.90;;;;;;4771799;30;20120;-77
2023/03/13 13:25:48;;;;;;;10.43;3.15;;;15.90;63.90;;;;;;4771973;30;20051;-79
2023/03/13 13:28:20;;;;;;;13.95;3.70;;;15.90;64.00;;;;;;4772299;30;20047;-79
2023/03/13 13:30:47;;;;;;;12.60;3.97;;;15.90;64.00;;;;;;4771611;30;20472;-78
2023/03/13 13:33:29;;;;;;;11.50;3.28;;;15.90;64.00;;;;;;4772195;30;20104;-77
2023/03/13 13:36:26;;;;;;;13.68;3.97;;;15.90;64.00;;;;;;4772276;30;20338;-79
2023/03/13 13:38:53;;;;;;;11.45;3.40;;;15.90;64.10;;;;;;4756395;30;20052;-77
2023/03/13 13:41:19;;;;;;;12.98;3.58;;;15.80;64.20;;;;;;4771631;30;20051;-77
2023/03/13 13:43:47;;;;;;;9.57;3.30;;;15.80;64.30;;;;;;4757098;30;20535;-79
2023/03/13 13:46:45;;;;;;;14.75;4.20;;;15.80;64.20;;;;;;4756445;30;20465;-77
2023/03/13 13:49:20;;;;;;;13.00;4.13;;;15.80;64.10;;;;;;4769450;30;20063;-77
2023/03/13 13:52:00;;;;;;;17.55;4.57;;;15.80;64.10;;;;;;4771973;30;20055;-75
2023/03/13 13:54:52;;;;;;;12.18;3.80;;;15.80;64.30;;;;;;4771659;30;20055;-78
2023/03/13 13:57:37;;;;;;;13.85;4.40;;;15.80;64.30;;;;;;4741311;30;20052;-77
2023/03/13 14:00:19;;;;;;;14.27;3.80;;;15.80;64.30;;;;;;4772276;30;20444;-78
2023/03/13 14:02:50;;;;;;;15.35;4.13;;;15.80;64.30;;;;;;4771028;30;20064;-78
2023/03/13 14:05:28;;;;;;;16.88;3.95;;;15.80;64.50;;;;;;4774372;30;20424;-77
2023/03/13 14:08:13;;;;;;;17.35;4.32;;;15.80;64.60;;;;;;4783685;30;20066;-78
2023/03/13 14:10:42;;;;;;;13.82;4.25;;;15.80;64.70;;;;;;4756754;30;20071;-77
2023/03/13 14:13:16;;;;;;;16.55;3.78;;;15.70;64.80;;;;;;4771809;30;20136;-78
2023/03/13 14:15:44;;;;;;;15.63;4.05;;;15.70;65.00;;;;;;4774609;30;20066;-77
2023/03/13 14:18:23;;;;;;;16.42;4.03;;;15.70;65.00;;;;;;4758565;30;20085;-78
2023/03/13 14:20:48;;;;;;;19.30;3.60;;;15.70;64.90;;;;;;4775260;30;20116;-79
2023/03/13 14:23:14;;;;;;;21.05;4.60;;;15.70;64.90;;;;;;4774203;30;20368;-78
2023/03/13 14:25:47;;;;;;;14.63;4.55;;;15.70;65.00;;;;;;4742327;30;20090;-76
2023/03/13 14:28:24;;;;;;;21.83;4.97;;;15.70;65.30;;;;;;4773320;30;20430;-78
2023/03/13 14:30:56;;;;;;;15.57;4.28;;;15.70;65.20;;;;;;4759470;30;20055;-78
2023/03/13 14:33:22;;;;;;;18.42;4.28;;;15.80;65.30;;;;;;4758626;30;20056;-77
2023/03/13 14:35:48;;;;;;;18.30;3.88;;;15.70;65.10;;;;;;4748755;30;20067;-75
2023/03/13 14:38:20;;;;;;;17.48;3.55;;;15.70;65.10;;;;;;4774045;30;20059;-77
2023/03/13 14:40:47;;;;;;;20.70;5.20;;;15.70;65.10;;;;;;4774072;30;20116;-75
2023/03/13 14:43:32;;;;;;;12.88;3.78;;;15.70;65.50;;;;;;4758257;30;20048;-77
2023/03/13 14:45:59;;;;;;;16.65;3.65;;;15.70;65.20;;;;;;4774629;30;20126;-76
2023/03/13 14:48:32;;;;;;;13.80;3.40;;;15.80;65.70;;;;;;4774016;30;20052;-76
2023/03/13 14:51:27;;;;;;;14.35;3.90;;;15.80;65.00;;;;;;4774096;30;20052;-77
2023/03/13 14:53:58;;;;;;;12.00;3.40;;;15.80;65.00;;;;;;4767031;30;20060;-78
2023/03/13 14:56:31;;;;;;;14.50;4.40;;;15.80;65.10;;;;;;4773735;30;20055;-76
2023/03/13 14:59:17;;;;;;;14.90;3.88;;;15.80;65.30;;;;;;4774300;30;20063;-76
2023/03/13 15:01:45;;;;;;;14.88;4.15;;;15.80;65.40;;;;;;4774248;30;20112;-77
2023/03/13 15:04:12;;;;;;;16.85;3.83;;;15.80;65.50;;;;;;4773260;30;20454;-75
2023/03/13 15:06:38;;;;;;;16.90;3.90;;;15.90;65.70;;;;;;4773969;30;20380;-76
2023/03/13 15:09:14;;;;;;;11.77;3.97;;;16.00;65.90;;;;;;4774120;30;20063;-76
2023/03/13 15:11:50;;;;;;;20.23;4.25;;;16.10;66.20;;;;;;4743780;30;20060;-75
2023/03/13 15:14:38;;;;;;;17.10;5.10;;;16.20;66.30;;;;;;4773774;30;20062;-75
2023/03/13 15:17:10;;;;;;;23.90;5.28;;;16.30;67.50;;;;;;4757168;30;20048;-77
2023/03/13 15:19:36;;;;;;;26.88;7.63;;;16.30;68.30;;;;;;4773283;30;20060;-76
2023/03/13 15:22:02;;;;;;;22.98;6.68;;;16.30;71.40;;;;;;4773882;30;20040;-75
2023/03/13 15:24:28;;;;;;;25.63;5.95;;;16.40;71.00;;;;;;4773013;30;20060;-75
2023/03/13 15:26:54;;;;;;;23.85;5.32;;;16.40;69.80;;;;;;4772343;30;20062;-76
2023/03/13 15:29:20;;;;;;;22.40;4.90;;;16.50;69.70;;;;;;4773902;30;20067;-78
2023/03/13 15:31:45;;;;;;;23.15;5.60;;;16.50;69.20;;;;;;4774233;30;20062;-80
2023/03/13 15:34:24;;;;;;;24.38;5.40;;;16.50;70.10;;;;;;4773887;30;20048;-81
2023/03/13 15:36:49;;;;;;;20.83;5.43;;;16.50;70.00;;;;;;4758116;30;20055;-77
2023/03/13 15:39:19;;;;;;;22.35;6.82;;;16.50;69.50;;;;;;4758686;30;20051;-81
2023/03/13 15:41:45;;;;;;;25.75;5.40;;;16.50;68.40;;;;;;4758179;30;20059;-80
2023/03/13 15:44:11;;;;;;;21.02;5.68;;;16.50;66.10;;;;;;4757902;30;20059;-75
2023/03/13 15:46:37;;;;;;;19.58;6.07;;;16.40;66.30;;;;;;4773619;30;20112;-75
2023/03/13 15:49:03;;;;;;;23.92;5.50;;;16.40;66.20;;;;;;4757399;30;20113;-79
2023/03/13 15:51:29;;;;;;;21.42;4.85;;;16.40;66.60;;;;;;4773281;30;20091;-77
2023/03/13 15:53:55;;;;;;;27.50;6.10;;;16.40;67.10;;;;;;4772930;30;20449;-75
2023/03/13 15:56:25;;;;;;;19.90;5.05;;;16.40;67.80;;;;;;4773209;30;20051;-80
2023/03/13 15:58:51;;;;;;;26.67;5.10;;;16.40;67.70;;;;;;4743080;30;20063;-78
2023/03/13 16:01:17;;;;;;;21.25;5.22;;;16.50;67.70;;;;;;4773293;30;20406;-78
2023/03/13 16:03:43;;;;;;;22.13;5.47;;;16.50;67.80;;;;;;4771633;30;20067;-76
2023/03/13 16:06:19;;;;;;;23.38;5.68;;;16.50;67.80;;;;;;4772861;30;20048;-76
2023/03/13 16:08:58;;;;;;;24.55;5.20;;;16.50;67.50;;;;;;4772355;30;20059;-84
2023/03/13 16:11:25;;;;;;;25.80;6.53;;;16.50;68.50;;;;;;4757198;30;20068;-75
2023/03/13 16:13:51;;;;;;;16.67;5.03;;;16.50;67.90;;;;;;4773071;30;20043;-75
2023/03/13 16:16:22;;;;;;;25.13;5.82;;;16.50;67.80;;;;;;4773070;30;20357;-75
2023/03/13 16:18:48;;;;;;;22.90;5.53;;;16.50;67.90;;;;;;4772732;30;20055;-82
2023/03/13 16:21:23;;;;;;;25.08;6.13;;;16.50;67.90;;;;;;4742744;30;20097;-84
2023/03/13 16:23:49;;;;;;;20.42;5.47;;;16.40;67.40;;;;;;4737981;30;20071;-79
2023/03/13 16:26:18;;;;;;;28.08;5.95;;;16.50;67.40;;;;;;4759420;30;20064;-83
2023/03/13 16:28:47;;;;;;;24.92;6.00;;;16.50;67.90;;;;;;4771914;30;20063;-78
2023/03/13 16:31:17;;;;;;;21.63;5.50;;;16.60;67.80;;;;;;4771534;30;20058;-75
2023/03/13 16:33:43;;;;;;;21.95;5.93;;;16.60;67.50;;;;;;4755054;30;20487;-74
2023/03/13 16:36:13;;;;;;;22.85;5.68;;;16.60;66.90;;;;;;4766673;30;20051;-77
2023/03/13 16:38:39;;;;;;;22.73;5.85;;;16.60;66.70;;;;;;4758201;30;20048;-80
2023/03/13 16:41:05;;;;;;;21.20;6.10;;;16.60;66.70;;;;;;4754918;30;20052;-75
2023/03/13 16:43:30;;;;;;;22.70;5.40;;;16.60;66.80;;;;;;4761609;30;20146;-75
2023/03/13 16:45:56;;;;;;;24.40;5.65;;;16.60;66.50;;;;;;4772234;30;20132;-74
2023/03/13 16:48:22;;;;;;;21.55;4.68;;;16.60;66.20;;;;;;4761641;30;20050;-73
2023/03/13 16:50:47;;;;;;;23.23;5.75;;;16.70;66.10;;;;;;4776947;30;20445;-75
2023/03/13 16:53:13;;;;;;;22.95;5.85;;;16.60;66.40;;;;;;4769108;30;20138;-78
2023/03/13 16:55:39;;;;;;;31.63;5.70;;;16.60;66.30;;;;;;4768173;30;20143;-80
2023/03/13 16:58:05;;;;;;;24.33;5.32;;;16.60;66.20;;;;;;4742069;30;20059;-77
2023/03/13 17:00:31;;;;;;;23.80;6.55;;;16.60;66.20;;;;;;4772254;30;20105;-84
2023/03/13 17:02:57;;;;;;;26.98;5.80;;;16.50;66.10;;;;;;4777352;30;20112;-82
2023/03/13 17:05:25;;;;;;;28.70;5.82;;;16.50;66.60;;;;;;4771274;30;20043;-81
2023/03/13 17:07:51;;;;;;;32.22;5.68;;;16.50;66.90;;;;;;4785919;30;20051;-81
2023/03/13 17:10:32;;;;;;;28.90;6.50;;;16.60;66.50;;;;;;4770892;30;20052;-77
2023/03/13 17:12:57;;;;;;;34.25;5.78;;;16.50;66.30;;;;;;4772087;30;20522;-79
2023/03/13 17:15:24;;;;;;;41.15;7.50;;;16.50;66.40;;;;;;4771895;30;20087;-80
2023/03/13 20:30:15;;;;;;;24.58;5.78;;;15.30;64.70;;;;;;4780409;29;20109;-76
2023/03/13 20:32:40;;;;;;;25.48;5.60;;;15.30;64.20;;;;;;4781639;30;20135;-77
2023/03/13 20:35:11;;;;;;;26.77;6.63;;;15.20;63.90;;;;;;4780215;30;20122;-77
2023/03/13 20:37:37;;;;;;;20.40;5.97;;;15.20;62.70;;;;;;4786753;30;20051;-75
2023/03/13 20:40:05;;;;;;;20.58;5.80;;;15.10;62.60;;;;;;4789193;30;20455;-75
2023/03/13 20:42:31;;;;;;;32.03;7.40;;;15.00;62.90;;;;;;4788475;30;20059;-79
2023/03/13 20:44:57;;;;;;;34.17;7.03;;;15.00;63.00;;;;;;4784147;30;20184;-76
2023/03/13 20:47:22;;;;;;;25.48;5.75;;;15.00;63.40;;;;;;4790374;30;20141;-77
2023/03/13 20:49:48;;;;;;;31.58;6.97;;;15.00;63.80;;;;;;4790482;30;20505;-77
2023/03/13 20:52:14;;;;;;;29.60;6.63;;;15.00;64.30;;;;;;4790376;30;20059;-77
2023/03/13 20:54:40;;;;;;;21.77;5.35;;;15.00;64.80;;;;;;4774533;30;20081;-79
2023/03/13 20:57:07;;;;;;;24.13;5.95;;;15.10;65.00;;;;;;4790325;30;20104;-75
2023/03/13 20:59:33;;;;;;;27.85;6.93;;;15.10;64.90;;;;;;4774033;30;20063;-76
2023/03/13 21:01:59;;;;;;;19.55;5.38;;;15.10;64.90;;;;;;4780440;30;20123;-77
2023/03/13 21:04:25;;;;;;;23.00;5.38;;;15.00;66.10;;;;;;4772227;30;20066;-81
2023/03/13 21:06:51;;;;;;;30.40;6.20;;;15.10;65.70;;;;;;4756316;30;20058;-77
2023/03/13 21:09:17;;;;;;;25.75;6.75;;;15.10;65.40;;;;;;4772547;30;20482;-79
2023/03/13 21:11:42;;;;;;;22.48;5.97;;;15.10;65.60;;;;;;4741802;30;20048;-79
2023/03/13 21:14:08;;;;;;;23.27;5.68;;;15.10;65.60;;;;;;4773094;30;20140;-80
2023/03/13 21:16:34;;;;;;;22.48;5.88;;;15.00;65.40;;;;;;4758141;30;20463;-79
2023/03/13 21:19:00;;;;;;;24.60;5.30;;;15.10;65.20;;;;;;4774378;30;20094;-82
2023/03/13 21:21:28;;;;;;;25.10;6.72;;;15.10;64.90;;;;;;4759527;30;20479;-81
2023/03/13 21:23:53;;;;;;;23.77;6.00;;;15.00;64.70;;;;;;4759494;30;20051;-81
2023/03/13 21:26:19;;;;;;;28.70;5.55;;;15.00;64.50;;;;;;4773252;30;20146;-81
2023/03/13 21:28:45;;;;;;;22.33;5.28;;;14.90;64.20;;;;;;4755840;30;20144;-76
